sensor_id;sensor_type;location;lat;lon;timestamp;temperature;humidity
5027;DHT22;2532;52.480;13.354;2023-04-03T04:32:18;2.20;89.70
5027;DHT22;2532;52.480;13.354;2023-04-03T04:34:44;2.10;89.80
5027;DHT22;2532;52.480;13.354;2023-04-03T04:37:11;2.10;89.90
5027;DHT22;2532;52.480;13.354;2023-04-03T04:39:38;2.10;90.00
5027;DHT22;2532;52.480;13.354;2023-04-03T04:42:05;2.10;90.00
5027;DHT22;2532;52.480;13.354;2023-04-03T04:44:38;2.10;90.00
5027;DHT22;2532;52.480;13.354;2023-04-03T04:47:05;2.10;90.00
5027;DHT22;2532;52.480;13.354;2023-04-03T04:49:33;2.10;90.00
5027;DHT22;2532;52.480;13.354;2023-04-03T04:52:00;2.10;90.10
5027;DHT22;2532;52.480;13.354;2023-04-03T04:54:27;2.10;90.10
5027;DHT22;2532;52.480;13.354;2023-04-03T04:56:54;2.00;90.10
5027;DHT22;2532;52.480;13.354;2023-04-03T04:59:21;2.00;90.20
5027;DHT22;2532;52.480;13.354;2023-04-03T05:01:48;2.10;90.30
5027;DHT22;2532;52.480;13.354;2023-04-03T05:04:15;2.10;90.30
5027;DHT22;2532;52.480;13.354;2023-04-03T05:06:44;2.00;90.30
5027;DHT22;2532;52.480;13.354;2023-04-03T05:09:11;2.10;90.40
5027;DHT22;2532;52.480;13.354;2023-04-03T05:11:38;2.10;90.40
5027;DHT22;2532;52.480;13.354;2023-04-03T05:14:05;2.10;90.30
5027;DHT22;2532;52.480;13.354;2023-04-03T05:16:33;2.20;90.30
5027;DHT22;2532;52.480;13.354;2023-04-03T05:19:00;2.20;90.30
5027;DHT22;2532;52.480;13.354;2023-04-03T05:21:28;2.20;90.20
5027;DHT22;2532;52.480;13.354;2023-04-03T05:23:59;2.20;90.20
5027;DHT22;2532;52.480;13.354;2023-04-03T05:26:28;2.20;90.30
5027;DHT22;2532;52.480;13.354;2023-04-03T05:28:55;2.20;90.30
5027;DHT22;2532;52.480;13.354;2023-04-03T05:31:22;2.20;90.30
5027;DHT22;2532;52.480;13.354;2023-04-03T05:33:49;2.20;90.30
5027;DHT22;2532;52.480;13.354;2023-04-03T05:36:16;2.20;90.30
5027;DHT22;2532;52.480;13.354;2023-04-03T05:38:43;2.30;90.30
5027;DHT22;2532;52.480;13.354;2023-04-03T05:41:12;2.30;90.20
5027;DHT22;2532;52.480;13.354;2023-04-03T05:43:40;2.30;90.20
5027;DHT22;2532;52.480;13.354;2023-04-03T05:46:10;2.30;90.20
5027;DHT22;2532;52.480;13.354;2023-04-03T05:48:37;2.20;90.20
5027;DHT22;2532;52.480;13.354;2023-04-03T05:51:06;2.30;90.30
5027;DHT22;2532;52.480;13.354;2023-04-03T05:53:35;2.30;90.30
5027;DHT22;2532;52.480;13.354;2023-04-03T05:56:02;2.20;90.20
5027;DHT22;2532;52.480;13.354;2023-04-03T05:58:31;2.20;90.20
5027;DHT22;2532;52.480;13.354;2023-04-03T06:00:58;2.20;90.20
5027;DHT22;2532;52.480;13.354;2023-04-03T06:03:25;2.30;90.20
5027;DHT22;2532;52.480;13.354;2023-04-03T06:05:53;2.30;90.20
5027;DHT22;2532;52.480;13.354;2023-04-03T06:08:21;2.40;90.10
5027;DHT22;2532;52.480;13.354;2023-04-03T06:10:49;2.40;90.00
5027;DHT22;2532;52.480;13.354;2023-04-03T06:13:17;2.50;90.00
5027;DHT22;2532;52.480;13.354;2023-04-03T06:15:45;2.60;89.50
5027;DHT22;2532;52.480;13.354;2023-04-03T06:18:12;2.60;89.60
5027;DHT22;2532;52.480;13.354;2023-04-03T06:20:39;2.60;89.40
5027;DHT22;2532;52.480;13.354;2023-04-03T06:23:06;2.70;89.10
5027;DHT22;2532;52.480;13.354;2023-04-03T06:25:33;2.70;88.90
5027;DHT22;2532;52.480;13.354;2023-04-03T06:28:00;2.80;89.00
5027;DHT22;2532;52.480;13.354;2023-04-03T06:30:27;2.80;88.90
5027;DHT22;2532;52.480;13.354;2023-04-03T06:32:56;2.80;88.80
5027;DHT22;2532;52.480;13.354;2023-04-03T06:35:23;2.80;87.60
5027;DHT22;2532;52.480;13.354;2023-04-03T06:37:50;2.90;87.30
5027;DHT22;2532;52.480;13.354;2023-04-03T06:40:21;2.90;87.10
5027;DHT22;2532;52.480;13.354;2023-04-03T06:42:49;3.00;87.00
5027;DHT22;2532;52.480;13.354;2023-04-03T06:45:16;3.00;86.50
5027;DHT22;2532;52.480;13.354;2023-04-03T06:47:43;3.00;84.70
5027;DHT22;2532;52.480;13.354;2023-04-03T06:50:12;3.10;85.40
5027;DHT22;2532;52.480;13.354;2023-04-03T06:52:41;3.20;85.40
5027;DHT22;2532;52.480;13.354;2023-04-03T06:55:08;3.20;85.10
5027;DHT22;2532;52.480;13.354;2023-04-03T06:57:35;3.30;86.50
5027;DHT22;2532;52.480;13.354;2023-04-03T07:00:04;3.40;84.80
5027;DHT22;2532;52.480;13.354;2023-04-03T07:02:31;3.50;85.00
5027;DHT22;2532;52.480;13.354;2023-04-03T07:04:58;3.50;83.90
5027;DHT22;2532;52.480;13.354;2023-04-03T07:07:27;3.60;83.70
5027;DHT22;2532;52.480;13.354;2023-04-03T07:09:54;3.60;83.20
5027;DHT22;2532;52.480;13.354;2023-04-03T07:12:20;3.60;83.30
5027;DHT22;2532;52.480;13.354;2023-04-03T07:14:47;3.60;82.80
5027;DHT22;2532;52.480;13.354;2023-04-03T07:17:14;3.80;83.10
5027;DHT22;2532;52.480;13.354;2023-04-03T07:19:41;3.80;81.70
5027;DHT22;2532;52.480;13.354;2023-04-03T07:22:08;3.90;81.50
5027;DHT22;2532;52.480;13.354;2023-04-03T07:24:38;4.00;80.40
5027;DHT22;2532;52.480;13.354;2023-04-03T07:27:05;4.00;79.40
5027;DHT22;2532;52.480;13.354;2023-04-03T07:29:34;4.10;78.40
5027;DHT22;2532;52.480;13.354;2023-04-03T07:32:01;4.20;77.90
5027;DHT22;2532;52.480;13.354;2023-04-03T07:34:28;4.20;76.80
5027;DHT22;2532;52.480;13.354;2023-04-03T07:36:56;4.30;77.20
5027;DHT22;2532;52.480;13.354;2023-04-03T07:39:23;4.30;76.40
5027;DHT22;2532;52.480;13.354;2023-04-03T07:41:51;4.30;75.70
5027;DHT22;2532;52.480;13.354;2023-04-03T07:44:18;4.30;74.80
5027;DHT22;2532;52.480;13.354;2023-04-03T07:46:45;4.20;74.80
5027;DHT22;2532;52.480;13.354;2023-04-03T07:49:12;4.20;74.90
5027;DHT22;2532;52.480;13.354;2023-04-03T07:51:39;4.20;75.00
5027;DHT22;2532;52.480;13.354;2023-04-03T07:54:06;4.20;74.90
5027;DHT22;2532;52.480;13.354;2023-04-03T07:56:33;4.20;75.10
5027;DHT22;2532;52.480;13.354;2023-04-03T07:59:02;4.10;74.80
5027;DHT22;2532;52.480;13.354;2023-04-03T08:01:29;4.20;74.70
5027;DHT22;2532;52.480;13.354;2023-04-03T08:03:58;4.10;74.60
5027;DHT22;2532;52.480;13.354;2023-04-03T08:06:25;4.20;74.90
5027;DHT22;2532;52.480;13.354;2023-04-03T08:08:52;4.30;74.80
5027;DHT22;2532;52.480;13.354;2023-04-03T08:11:19;4.30;74.60
5027;DHT22;2532;52.480;13.354;2023-04-03T08:13:46;4.40;74.20
5027;DHT22;2532;52.480;13.354;2023-04-03T08:16:18;4.50;73.70
5027;DHT22;2532;52.480;13.354;2023-04-03T08:18:46;4.50;73.70
5027;DHT22;2532;52.480;13.354;2023-04-03T08:21:16;4.50;73.40
5027;DHT22;2532;52.480;13.354;2023-04-03T08:23:48;4.50;72.90
5027;DHT22;2532;52.480;13.354;2023-04-03T08:26:17;4.50;72.70
5027;DHT22;2532;52.480;13.354;2023-04-03T08:28:45;4.30;72.70
5027;DHT22;2532;52.480;13.354;2023-04-03T08:31:13;4.20;73.30
5027;DHT22;2532;52.480;13.354;2023-04-03T08:33:42;4.20;73.50
5027;DHT22;2532;52.480;13.354;2023-04-03T08:36:20;4.20;73.50
5027;DHT22;2532;52.480;13.354;2023-04-03T08:38:48;4.20;73.70
5027;DHT22;2532;52.480;13.354;2023-04-03T08:41:27;4.30;73.80
5027;DHT22;2532;52.480;13.354;2023-04-03T08:44:15;4.30;73.30
5027;DHT22;2532;52.480;13.354;2023-04-03T08:47:00;4.30;72.80
5027;DHT22;2532;52.480;13.354;2023-04-03T08:49:32;4.30;72.10
5027;DHT22;2532;52.480;13.354;2023-04-03T08:52:02;4.40;71.90
5027;DHT22;2532;52.480;13.354;2023-04-03T08:54:33;4.40;71.90
5027;DHT22;2532;52.480;13.354;2023-04-03T08:57:03;4.40;71.20
5027;DHT22;2532;52.480;13.354;2023-04-03T08:59:34;4.40;70.80
5027;DHT22;2532;52.480;13.354;2023-04-03T09:02:04;4.40;71.10
5027;DHT22;2532;52.480;13.354;2023-04-03T09:04:41;4.40;71.70
5027;DHT22;2532;52.480;13.354;2023-04-03T09:07:15;4.40;72.20
5027;DHT22;2532;52.480;13.354;2023-04-03T09:09:43;4.50;72.70
5027;DHT22;2532;52.480;13.354;2023-04-03T09:12:17;4.60;72.30
5027;DHT22;2532;52.480;13.354;2023-04-03T09:14:52;4.60;72.10
5027;DHT22;2532;52.480;13.354;2023-04-03T09:17:31;4.80;71.60
5027;DHT22;2532;52.480;13.354;2023-04-03T09:20:09;4.90;70.70
5027;DHT22;2532;52.480;13.354;2023-04-03T09:22:41;5.00;69.90
5027;DHT22;2532;52.480;13.354;2023-04-03T09:25:14;5.00;67.80
5027;DHT22;2532;52.480;13.354;2023-04-03T09:27:41;5.10;67.40
5027;DHT22;2532;52.480;13.354;2023-04-03T09:30:13;5.10;66.80
5027;DHT22;2532;52.480;13.354;2023-04-03T09:32:41;5.20;67.00
5027;DHT22;2532;52.480;13.354;2023-04-03T09:35:19;5.30;65.10
5027;DHT22;2532;52.480;13.354;2023-04-03T09:37:49;5.30;64.70
5027;DHT22;2532;52.480;13.354;2023-04-03T09:40:34;5.30;64.40
5027;DHT22;2532;52.480;13.354;2023-04-03T09:43:19;5.30;64.30
5027;DHT22;2532;52.480;13.354;2023-04-03T09:45:49;5.30;63.70
5027;DHT22;2532;52.480;13.354;2023-04-03T09:48:19;5.40;63.50
5027;DHT22;2532;52.480;13.354;2023-04-03T09:50:56;5.40;63.80
5027;DHT22;2532;52.480;13.354;2023-04-03T09:53:37;5.40;62.40
5027;DHT22;2532;52.480;13.354;2023-04-03T09:56:19;5.40;62.60
5027;DHT22;2532;52.480;13.354;2023-04-03T09:58:48;5.20;63.10
5027;DHT22;2532;52.480;13.354;2023-04-03T10:01:26;5.20;63.70
5027;DHT22;2532;52.480;13.354;2023-04-03T10:04:09;5.30;64.70
5027;DHT22;2532;52.480;13.354;2023-04-03T10:06:40;5.30;65.50
5027;DHT22;2532;52.480;13.354;2023-04-03T10:09:18;5.30;65.40
5027;DHT22;2532;52.480;13.354;2023-04-03T10:12:00;5.30;64.70
5027;DHT22;2532;52.480;13.354;2023-04-03T10:17:14;5.50;65.60
5027;DHT22;2532;52.480;13.354;2023-04-03T10:19:47;5.60;65.20
5027;DHT22;2532;52.480;13.354;2023-04-03T10:22:23;5.70;65.40
5027;DHT22;2532;52.480;13.354;2023-04-03T10:25:02;5.80;65.10
5027;DHT22;2532;52.480;13.354;2023-04-03T10:27:39;5.90;65.20
5027;DHT22;2532;52.480;13.354;2023-04-03T10:30:19;5.90;63.80
5027;DHT22;2532;52.480;13.354;2023-04-03T10:32:58;5.90;63.90
5027;DHT22;2532;52.480;13.354;2023-04-03T10:35:39;5.90;64.30
5027;DHT22;2532;52.480;13.354;2023-04-03T10:38:16;5.80;63.30
5027;DHT22;2532;52.480;13.354;2023-04-03T10:40:54;5.80;62.70
5027;DHT22;2532;52.480;13.354;2023-04-03T10:43:31;5.80;62.50
5027;DHT22;2532;52.480;13.354;2023-04-03T10:46:02;5.80;62.30
5027;DHT22;2532;52.480;13.354;2023-04-03T10:48:58;5.90;62.40
5027;DHT22;2532;52.480;13.354;2023-04-03T10:51:31;5.90;61.50
5027;DHT22;2532;52.480;13.354;2023-04-03T10:54:11;6.00;61.00
5027;DHT22;2532;52.480;13.354;2023-04-03T10:56:41;6.10;60.70
5027;DHT22;2532;52.480;13.354;2023-04-03T10:59:28;6.10;60.10
5027;DHT22;2532;52.480;13.354;2023-04-03T11:02:00;6.20;60.30
5027;DHT22;2532;52.480;13.354;2023-04-03T11:04:31;6.40;60.60
5027;DHT22;2532;52.480;13.354;2023-04-03T11:07:03;6.40;60.30
5027;DHT22;2532;52.480;13.354;2023-04-03T11:09:37;6.40;60.10
5027;DHT22;2532;52.480;13.354;2023-04-03T11:12:11;6.40;60.70
5027;DHT22;2532;52.480;13.354;2023-04-03T11:14:39;6.50;60.90
5027;DHT22;2532;52.480;13.354;2023-04-03T11:17:22;6.50;60.80
5027;DHT22;2532;52.480;13.354;2023-04-03T11:19:59;6.50;60.60
5027;DHT22;2532;52.480;13.354;2023-04-03T11:22:32;6.50;60.90
5027;DHT22;2532;52.480;13.354;2023-04-03T11:25:06;6.60;60.40
5027;DHT22;2532;52.480;13.354;2023-04-03T11:27:43;6.60;60.00
5027;DHT22;2532;52.480;13.354;2023-04-03T11:30:17;6.50;60.30
5027;DHT22;2532;52.480;13.354;2023-04-03T11:35:56;6.50;61.00
5027;DHT22;2532;52.480;13.354;2023-04-03T11:38:26;6.50;61.20
5027;DHT22;2532;52.480;13.354;2023-04-03T11:40:58;6.50;61.90
5027;DHT22;2532;52.480;13.354;2023-04-03T11:43:27;6.60;61.90
5027;DHT22;2532;52.480;13.354;2023-04-03T11:45:56;6.50;61.70
5027;DHT22;2532;52.480;13.354;2023-04-03T11:48:45;6.50;61.40
5027;DHT22;2532;52.480;13.354;2023-04-03T11:51:40;6.60;61.90
5027;DHT22;2532;52.480;13.354;2023-04-03T11:54:45;6.60;61.90
5027;DHT22;2532;52.480;13.354;2023-04-03T12:00:49;6.60;62.70
5027;DHT22;2532;52.480;13.354;2023-04-03T12:06:52;6.50;61.20
5027;DHT22;2532;52.480;13.354;2023-04-03T12:09:27;6.50;62.20
5027;DHT22;2532;52.480;13.354;2023-04-03T12:11:56;6.50;62.30
5027;DHT22;2532;52.480;13.354;2023-04-03T12:14:24;6.40;62.10
5027;DHT22;2532;52.480;13.354;2023-04-03T12:16:54;6.40;62.50
5027;DHT22;2532;52.480;13.354;2023-04-03T12:19:39;6.40;63.50
5027;DHT22;2532;52.480;13.354;2023-04-03T12:22:14;6.40;63.10
5027;DHT22;2532;52.480;13.354;2023-04-03T12:24:42;6.40;62.50
5027;DHT22;2532;52.480;13.354;2023-04-03T12:27:33;6.40;62.40
5027;DHT22;2532;52.480;13.354;2023-04-03T12:30:10;6.40;62.30
5027;DHT22;2532;52.480;13.354;2023-04-03T12:32:49;6.40;62.80
5027;DHT22;2532;52.480;13.354;2023-04-03T12:35:23;6.40;63.00
5027;DHT22;2532;52.480;13.354;2023-04-03T12:41:21;6.40;63.50
5027;DHT22;2532;52.480;13.354;2023-04-03T12:44:17;6.30;63.90
5027;DHT22;2532;52.480;13.354;2023-04-03T12:46:50;6.20;63.70
5027;DHT22;2532;52.480;13.354;2023-04-03T12:49:40;6.20;64.60
5027;DHT22;2532;52.480;13.354;2023-04-03T12:52:19;6.20;64.30
5027;DHT22;2532;52.480;13.354;2023-04-03T12:54:47;6.20;62.90
5027;DHT22;2532;52.480;13.354;2023-04-03T12:57:21;6.20;63.00
5027;DHT22;2532;52.480;13.354;2023-04-03T12:59:50;6.30;62.40
5027;DHT22;2532;52.480;13.354;2023-04-03T13:02:22;6.30;61.00
5027;DHT22;2532;52.480;13.354;2023-04-03T13:04:52;6.40;60.70
5027;DHT22;2532;52.480;13.354;2023-04-03T13:07:25;6.50;60.80
5027;DHT22;2532;52.480;13.354;2023-04-03T13:09:59;6.50;60.70
5027;DHT22;2532;52.480;13.354;2023-04-03T13:12:27;6.60;60.80
5027;DHT22;2532;52.480;13.354;2023-04-03T13:14:56;6.60;60.80
5027;DHT22;2532;52.480;13.354;2023-04-03T13:17:25;6.70;61.10
5027;DHT22;2532;52.480;13.354;2023-04-03T13:19:54;6.60;60.70
5027;DHT22;2532;52.480;13.354;2023-04-03T13:22:26;6.60;61.20
5027;DHT22;2532;52.480;13.354;2023-04-03T13:24:58;6.60;61.40
5027;DHT22;2532;52.480;13.354;2023-04-03T13:27:26;6.50;61.60
5027;DHT22;2532;52.480;13.354;2023-04-03T13:29:57;6.60;62.20
5027;DHT22;2532;52.480;13.354;2023-04-03T13:32:28;6.60;62.10
5027;DHT22;2532;52.480;13.354;2023-04-03T13:34:57;6.70;62.40
5027;DHT22;2532;52.480;13.354;2023-04-03T13:37:27;6.70;62.40
5027;DHT22;2532;52.480;13.354;2023-04-03T13:40:03;6.70;62.30
5027;DHT22;2532;52.480;13.354;2023-04-03T13:42:32;6.80;62.50
5027;DHT22;2532;52.480;13.354;2023-04-03T13:45:19;6.80;62.80
5027;DHT22;2532;52.480;13.354;2023-04-03T13:47:48;6.80;62.50
5027;DHT22;2532;52.480;13.354;2023-04-03T13:50:19;6.80;62.20
5027;DHT22;2532;52.480;13.354;2023-04-03T13:52:48;6.70;61.80
5027;DHT22;2532;52.480;13.354;2023-04-03T13:55:20;6.70;62.50
5027;DHT22;2532;52.480;13.354;2023-04-03T13:57:53;6.60;62.10
5027;DHT22;2532;52.480;13.354;2023-04-03T14:00:34;6.60;62.50
5027;DHT22;2532;52.480;13.354;2023-04-03T14:03:12;6.60;62.80
5027;DHT22;2532;52.480;13.354;2023-04-03T14:05:41;6.60;62.80
5027;DHT22;2532;52.480;13.354;2023-04-03T14:08:08;6.60;63.00
5027;DHT22;2532;52.480;13.354;2023-04-03T14:10:35;6.60;63.20
5027;DHT22;2532;52.480;13.354;2023-04-03T14:13:03;6.60;62.50
5027;DHT22;2532;52.480;13.354;2023-04-03T14:15:31;6.50;62.70
5027;DHT22;2532;52.480;13.354;2023-04-03T14:17:58;6.50;62.70
5027;DHT22;2532;52.480;13.354;2023-04-03T14:20:26;6.40;63.10
5027;DHT22;2532;52.480;13.354;2023-04-03T14:22:55;6.40;63.80
5027;DHT22;2532;52.480;13.354;2023-04-03T14:25:22;6.40;63.10
5027;DHT22;2532;52.480;13.354;2023-04-03T14:27:52;6.50;62.80
5027;DHT22;2532;52.480;13.354;2023-04-03T14:30:22;6.50;62.50
5027;DHT22;2532;52.480;13.354;2023-04-03T14:32:50;6.50;62.30
5027;DHT22;2532;52.480;13.354;2023-04-03T14:35:18;6.40;62.00
5027;DHT22;2532;52.480;13.354;2023-04-03T14:37:45;6.40;61.20
5027;DHT22;2532;52.480;13.354;2023-04-03T14:40:16;6.40;60.80
5027;DHT22;2532;52.480;13.354;2023-04-03T14:42:43;6.40;61.60
5027;DHT22;2532;52.480;13.354;2023-04-03T14:45:13;6.40;62.50
5027;DHT22;2532;52.480;13.354;2023-04-03T14:47:44;6.40;62.80
5027;DHT22;2532;52.480;13.354;2023-04-03T14:50:14;6.50;62.90
5027;DHT22;2532;52.480;13.354;2023-04-03T14:52:42;6.60;62.60
5027;DHT22;2532;52.480;13.354;2023-04-03T14:55:11;6.70;62.30
5027;DHT22;2532;52.480;13.354;2023-04-03T14:57:40;6.70;62.40
5027;DHT22;2532;52.480;13.354;2023-04-03T15:00:11;6.60;62.80
5027;DHT22;2532;52.480;13.354;2023-04-03T15:02:39;6.50;63.10
5027;DHT22;2532;52.480;13.354;2023-04-03T15:05:08;6.40;63.30
5027;DHT22;2532;52.480;13.354;2023-04-03T15:07:38;6.40;64.20
5027;DHT22;2532;52.480;13.354;2023-04-03T15:10:15;6.40;64.70
5027;DHT22;2532;52.480;13.354;2023-04-03T15:12:44;6.40;65.10
5027;DHT22;2532;52.480;13.354;2023-04-03T15:15:12;6.40;65.60
5027;DHT22;2532;52.480;13.354;2023-04-03T15:17:40;6.30;66.10
5027;DHT22;2532;52.480;13.354;2023-04-03T15:20:12;6.30;66.70
5027;DHT22;2532;52.480;13.354;2023-04-03T15:22:39;6.20;67.00
5027;DHT22;2532;52.480;13.354;2023-04-03T15:25:07;6.20;67.60
5027;DHT22;2532;52.480;13.354;2023-04-03T15:27:35;6.20;67.60
5027;DHT22;2532;52.480;13.354;2023-04-03T15:30:05;6.10;67.90
5027;DHT22;2532;52.480;13.354;2023-04-03T15:32:32;6.10;68.40
5027;DHT22;2532;52.480;13.354;2023-04-03T15:34:59;6.10;68.60
5027;DHT22;2532;52.480;13.354;2023-04-03T15:37:26;6.10;68.80
5027;DHT22;2532;52.480;13.354;2023-04-03T15:39:53;6.00;68.70
5027;DHT22;2532;52.480;13.354;2023-04-03T15:42:20;6.00;69.00
5027;DHT22;2532;52.480;13.354;2023-04-03T15:44:47;5.90;69.30
5027;DHT22;2532;52.480;13.354;2023-04-03T15:47:15;5.90;69.40
5027;DHT22;2532;52.480;13.354;2023-04-03T15:49:42;5.80;67.90
5027;DHT22;2532;52.480;13.354;2023-04-03T15:52:09;5.70;68.00
5027;DHT22;2532;52.480;13.354;2023-04-03T15:54:36;5.70;68.40
5027;DHT22;2532;52.480;13.354;2023-04-03T15:57:03;5.70;68.70
5027;DHT22;2532;52.480;13.354;2023-04-03T15:59:30;5.70;68.40
5027;DHT22;2532;52.480;13.354;2023-04-03T16:01:58;5.80;68.60
5027;DHT22;2532;52.480;13.354;2023-04-03T16:04:27;5.90;68.30
5027;DHT22;2532;52.480;13.354;2023-04-03T16:06:54;5.90;68.30
5027;DHT22;2532;52.480;13.354;2023-04-03T16:09:22;6.00;68.30
5027;DHT22;2532;52.480;13.354;2023-04-03T16:11:49;6.00;67.70
5027;DHT22;2532;52.480;13.354;2023-04-03T16:14:16;6.00;67.40
5027;DHT22;2532;52.480;13.354;2023-04-03T16:16:43;6.00;67.70
5027;DHT22;2532;52.480;13.354;2023-04-03T16:19:18;6.00;67.70
5027;DHT22;2532;52.480;13.354;2023-04-03T16:21:46;6.00;68.20
5027;DHT22;2532;52.480;13.354;2023-04-03T16:24:13;6.00;68.30
5027;DHT22;2532;52.480;13.354;2023-04-03T16:26:50;6.00;68.80
5027;DHT22;2532;52.480;13.354;2023-04-03T16:29:18;6.10;69.20
5027;DHT22;2532;52.480;13.354;2023-04-03T16:31:45;6.40;68.40
5027;DHT22;2532;52.480;13.354;2023-04-03T16:34:12;6.70;67.50
5027;DHT22;2532;52.480;13.354;2023-04-03T16:36:39;7.10;66.70
5027;DHT22;2532;52.480;13.354;2023-04-03T16:39:08;7.50;66.30
5027;DHT22;2532;52.480;13.354;2023-04-03T16:41:36;7.70;65.40
5027;DHT22;2532;52.480;13.354;2023-04-03T16:44:03;7.90;65.00
5027;DHT22;2532;52.480;13.354;2023-04-03T16:46:32;7.90;64.40
5027;DHT22;2532;52.480;13.354;2023-04-03T16:48:59;7.80;64.50
5027;DHT22;2532;52.480;13.354;2023-04-03T16:51:26;7.60;64.70
5027;DHT22;2532;52.480;13.354;2023-04-03T16:53:53;7.40;65.40
5027;DHT22;2532;52.480;13.354;2023-04-03T16:56:21;7.30;66.10
5027;DHT22;2532;52.480;13.354;2023-04-03T16:58:48;7.00;66.70
5027;DHT22;2532;52.480;13.354;2023-04-03T17:01:17;6.90;67.40
5027;DHT22;2532;52.480;13.354;2023-04-03T17:03:46;6.80;68.10
5027;DHT22;2532;52.480;13.354;2023-04-03T17:06:17;6.60;67.80
5027;DHT22;2532;52.480;13.354;2023-04-03T17:08:46;6.40;68.20
5027;DHT22;2532;52.480;13.354;2023-04-03T17:11:13;6.30;67.80
5027;DHT22;2532;52.480;13.354;2023-04-03T17:13:42;6.20;68.10
5027;DHT22;2532;52.480;13.354;2023-04-03T17:16:12;6.10;68.30
5027;DHT22;2532;52.480;13.354;2023-04-03T17:18:40;6.10;68.60
5027;DHT22;2532;52.480;13.354;2023-04-03T17:21:07;6.00;69.20
5027;DHT22;2532;52.480;13.354;2023-04-03T17:23:35;6.00;69.90
5027;DHT22;2532;52.480;13.354;2023-04-03T17:26:03;6.00;70.30
5027;DHT22;2532;52.480;13.354;2023-04-03T17:28:30;5.90;70.20
5027;DHT22;2532;52.480;13.354;2023-04-03T17:31:00;5.80;70.10
5027;DHT22;2532;52.480;13.354;2023-04-03T17:33:28;5.70;70.30
5027;DHT22;2532;52.480;13.354;2023-04-03T17:35:56;5.70;70.80
5027;DHT22;2532;52.480;13.354;2023-04-03T17:38:24;5.60;70.30
5027;DHT22;2532;52.480;13.354;2023-04-03T17:40:51;5.60;71.30
5027;DHT22;2532;52.480;13.354;2023-04-03T17:43:18;5.60;71.80
5027;DHT22;2532;52.480;13.354;2023-04-03T17:45:45;5.60;71.90
5027;DHT22;2532;52.480;13.354;2023-04-03T17:48:13;5.60;72.20
5027;DHT22;2532;52.480;13.354;2023-04-03T17:50:40;5.60;72.50
5027;DHT22;2532;52.480;13.354;2023-04-03T17:53:07;5.60;73.00
5027;DHT22;2532;52.480;13.354;2023-04-03T17:55:36;5.60;73.10
5027;DHT22;2532;52.480;13.354;2023-04-03T17:58:03;5.60;73.30
5027;DHT22;2532;52.480;13.354;2023-04-03T18:00:31;5.60;73.30
5027;DHT22;2532;52.480;13.354;2023-04-03T18:02:58;5.50;73.50
5027;DHT22;2532;52.480;13.354;2023-04-03T18:05:28;5.50;73.90
5027;DHT22;2532;52.480;13.354;2023-04-03T18:07:57;5.40;74.40
5027;DHT22;2532;52.480;13.354;2023-04-03T18:10:25;5.40;74.90
5027;DHT22;2532;52.480;13.354;2023-04-03T18:12:52;5.40;74.80
5027;DHT22;2532;52.480;13.354;2023-04-03T18:15:19;5.40;74.90
5027;DHT22;2532;52.480;13.354;2023-04-03T18:17:46;5.40;74.80
5027;DHT22;2532;52.480;13.354;2023-04-03T18:20:16;5.40;74.90
5027;DHT22;2532;52.480;13.354;2023-04-03T18:22:44;5.50;74.70
5027;DHT22;2532;52.480;13.354;2023-04-03T18:25:11;5.50;74.40
5027;DHT22;2532;52.480;13.354;2023-04-03T18:27:39;5.50;74.10
5027;DHT22;2532;52.480;13.354;2023-04-03T18:30:09;5.50;73.40
5027;DHT22;2532;52.480;13.354;2023-04-03T18:32:37;5.40;73.60
5027;DHT22;2532;52.480;13.354;2023-04-03T18:35:05;5.40;74.20
5027;DHT22;2532;52.480;13.354;2023-04-03T18:37:34;5.40;74.30
5027;DHT22;2532;52.480;13.354;2023-04-03T18:40:03;5.40;74.00
5027;DHT22;2532;52.480;13.354;2023-04-03T18:42:30;5.40;74.30
5027;DHT22;2532;52.480;13.354;2023-04-03T18:45:01;5.40;74.50
5027;DHT22;2532;52.480;13.354;2023-04-03T18:47:31;5.40;74.70
5027;DHT22;2532;52.480;13.354;2023-04-03T18:49:58;5.40;74.90
5027;DHT22;2532;52.480;13.354;2023-04-03T18:52:28;5.30;75.10
5027;DHT22;2532;52.480;13.354;2023-04-03T18:54:58;5.40;75.50
5027;DHT22;2532;52.480;13.354;2023-04-03T18:57:27;5.40;75.80
5027;DHT22;2532;52.480;13.354;2023-04-03T18:59:54;5.30;75.90
5027;DHT22;2532;52.480;13.354;2023-04-03T19:02:21;5.30;76.20
5027;DHT22;2532;52.480;13.354;2023-04-03T19:04:51;5.30;76.20
5027;DHT22;2532;52.480;13.354;2023-04-03T19:07:22;5.20;76.20
5027;DHT22;2532;52.480;13.354;2023-04-03T19:09:51;5.10;76.70
5027;DHT22;2532;52.480;13.354;2023-04-03T19:12:18;5.00;77.10
5027;DHT22;2532;52.480;13.354;2023-04-03T19:14:47;4.90;77.60
5027;DHT22;2532;52.480;13.354;2023-04-03T19:17:14;4.90;78.00
5027;DHT22;2532;52.480;13.354;2023-04-03T19:19:41;4.80;78.50
5027;DHT22;2532;52.480;13.354;2023-04-03T19:22:08;4.80;78.90
5027;DHT22;2532;52.480;13.354;2023-04-03T19:24:36;4.80;79.20
5027;DHT22;2532;52.480;13.354;2023-04-03T19:27:03;4.80;79.40
5027;DHT22;2532;52.480;13.354;2023-04-03T19:29:31;4.80;79.60
5027;DHT22;2532;52.480;13.354;2023-04-03T19:31:59;4.80;79.80
5027;DHT22;2532;52.480;13.354;2023-04-03T19:34:27;4.70;80.00
5027;DHT22;2532;52.480;13.354;2023-04-03T19:36:57;4.70;80.50
5027;DHT22;2532;52.480;13.354;2023-04-03T19:39:28;4.70;80.70
5027;DHT22;2532;52.480;13.354;2023-04-03T19:41:59;4.70;81.00
5027;DHT22;2532;52.480;13.354;2023-04-03T19:44:28;4.70;81.10
5027;DHT22;2532;52.480;13.354;2023-04-03T19:47:03;4.70;81.20
5027;DHT22;2532;52.480;13.354;2023-04-03T19:49:35;4.70;81.60
5027;DHT22;2532;52.480;13.354;2023-04-03T19:52:03;4.80;81.60
5027;DHT22;2532;52.480;13.354;2023-04-03T19:54:33;4.90;81.70
5027;DHT22;2532;52.480;13.354;2023-04-03T19:57:00;4.90;81.80
5027;DHT22;2532;52.480;13.354;2023-04-03T19:59:27;4.90;81.70
5027;DHT22;2532;52.480;13.354;2023-04-03T20:01:55;4.90;81.80
5027;DHT22;2532;52.480;13.354;2023-04-03T20:04:24;4.90;81.90
5027;DHT22;2532;52.480;13.354;2023-04-03T20:06:51;4.90;82.00
5027;DHT22;2532;52.480;13.354;2023-04-03T20:09:18;4.90;82.00
5027;DHT22;2532;52.480;13.354;2023-04-03T20:11:46;4.90;82.20
5027;DHT22;2532;52.480;13.354;2023-04-03T20:14:13;4.90;82.20
5027;DHT22;2532;52.480;13.354;2023-04-03T20:16:41;4.80;82.20
5027;DHT22;2532;52.480;13.354;2023-04-03T20:19:11;4.80;82.60
5027;DHT22;2532;52.480;13.354;2023-04-03T20:21:44;4.80;82.90
5027;DHT22;2532;52.480;13.354;2023-04-03T20:24:14;4.70;82.80
5027;DHT22;2532;52.480;13.354;2023-04-03T20:26:42;4.70;83.10
5027;DHT22;2532;52.480;13.354;2023-04-03T20:29:11;4.60;83.10
5027;DHT22;2532;52.480;13.354;2023-04-03T20:31:39;4.60;83.30
5027;DHT22;2532;52.480;13.354;2023-04-03T20:34:06;4.50;83.50
5027;DHT22;2532;52.480;13.354;2023-04-03T20:36:34;4.50;83.80
5027;DHT22;2532;52.480;13.354;2023-04-03T20:39:03;4.40;83.90
5027;DHT22;2532;52.480;13.354;2023-04-03T20:41:30;4.50;83.80
5027;DHT22;2532;52.480;13.354;2023-04-03T20:44:00;4.50;84.00
5027;DHT22;2532;52.480;13.354;2023-04-03T20:46:27;4.50;84.00
5027;DHT22;2532;52.480;13.354;2023-04-03T20:48:54;4.50;83.80
5027;DHT22;2532;52.480;13.354;2023-04-03T20:51:23;4.50;83.90
5027;DHT22;2532;52.480;13.354;2023-04-03T20:53:50;4.50;83.80
5027;DHT22;2532;52.480;13.354;2023-04-03T20:56:19;4.40;83.70
5027;DHT22;2532;52.480;13.354;2023-04-03T20:58:46;4.40;83.80
